createdAt,value
2019-05-12T00:02:39.453Z,2.27
2019-05-12T00:07:41.388Z,2.20
2019-05-12T00:12:44.595Z,2.77
2019-05-12T00:17:48.137Z,3.27
2019-05-12T00:22:58.015Z,2.33
2019-05-12T00:28:00.459Z,4.03
2019-05-12T00:33:03.897Z,2.53
2019-05-12T00:38:08.954Z,2.00
2019-05-12T00:43:12.199Z,2.83
2019-05-12T00:48:17.657Z,2.87
2019-05-12T00:53:20.523Z,2.43
2019-05-12T00:58:23.670Z,2.80
2019-05-12T01:03:27.911Z,2.50
2019-05-12T01:08:34.095Z,3.07
2019-05-12T01:13:38.252Z,2.80
2019-05-12T01:18:41.352Z,2.27
2019-05-12T01:23:56.413Z,3.47
2019-05-12T01:28:50.000Z,2.57
2019-05-12T01:33:53.153Z,3.20
2019-05-12T01:38:59.153Z,2.53
2019-05-12T01:44:01.145Z,2.20
2019-05-12T01:49:04.045Z,2.57
2019-05-12T01:54:13.831Z,2.20
2019-05-12T01:59:11.895Z,2.10
2019-05-12T02:04:15.046Z,2.73
2019-05-12T02:09:20.640Z,2.83
2019-05-12T02:14:23.776Z,2.40
2019-05-12T02:19:28.255Z,2.50
2019-05-12T02:24:31.576Z,2.20
2019-05-12T02:29:34.781Z,3.20
2019-05-12T02:34:38.005Z,2.83
2019-05-12T02:39:40.633Z,2.27
2019-05-12T02:44:44.437Z,2.50
2019-05-12T02:49:47.670Z,3.00
2019-05-12T02:54:56.910Z,3.07
2019-05-12T02:59:57.693Z,2.67
2019-05-12T03:05:05.377Z,3.33
2019-05-12T03:10:07.763Z,2.80
2019-05-12T03:15:14.886Z,3.03
2019-05-12T03:20:16.197Z,2.53
2019-05-12T03:25:24.651Z,3.43
2019-05-12T03:30:29.084Z,2.97
2019-05-12T03:35:39.421Z,3.40
2019-05-12T03:40:37.673Z,3.80
2019-05-12T03:45:39.519Z,2.97
2019-05-12T03:50:46.184Z,3.07
2019-05-12T03:55:48.271Z,3.77
2019-05-12T04:00:51.097Z,3.20
2019-05-12T04:05:55.342Z,3.90
2019-05-12T04:10:59.131Z,3.63
2019-05-12T04:16:04.899Z,3.73
2019-05-12T04:21:07.794Z,3.00
2019-05-12T04:26:15.778Z,3.00
2019-05-12T04:31:16.397Z,3.17
2019-05-12T04:36:19.653Z,3.10
2019-05-12T04:41:26.031Z,2.77
2019-05-12T04:46:28.071Z,2.40
2019-05-12T04:51:34.642Z,2.87
2019-05-12T04:56:36.364Z,3.70
2019-05-12T05:01:40.056Z,3.20
2019-05-12T05:06:44.858Z,3.50
2019-05-12T05:11:48.247Z,3.17
2019-05-12T05:16:54.101Z,2.80
2019-05-12T05:21:56.380Z,2.87
2019-05-12T05:26:59.997Z,2.40
2019-05-12T05:32:03.527Z,2.90
2019-05-12T05:37:07.099Z,3.10
2019-05-12T05:42:10.573Z,3.40
2019-05-12T05:47:13.993Z,2.73
2019-05-12T05:52:17.273Z,2.30
2019-05-12T05:57:25.797Z,3.20
2019-05-12T06:02:32.058Z,3.50
2019-05-12T06:07:38.915Z,2.60
2019-05-12T06:12:40.358Z,3.10
2019-05-12T06:17:44.276Z,3.07
2019-05-12T06:22:48.747Z,2.80
2019-05-12T06:28:00.188Z,3.70
2019-05-12T06:32:57.438Z,2.70
2019-05-12T06:38:04.997Z,3.50
2019-05-12T06:43:08.556Z,3.03
2019-05-12T06:48:14.043Z,2.17
2019-05-12T06:58:55.538Z,3.10
2019-05-12T07:04:00.594Z,2.30
2019-05-12T07:09:09.918Z,2.20
2019-05-12T07:14:19.041Z,2.33
2019-05-12T07:19:22.481Z,2.07
2019-05-12T07:24:23.859Z,3.07
2019-05-12T07:29:27.302Z,3.60
2019-05-12T07:34:30.474Z,3.20
2019-05-12T07:39:37.038Z,3.30
2019-05-12T07:44:44.083Z,1.60
2019-05-12T07:49:46.777Z,2.20
2019-05-12T07:54:52.857Z,2.23
2019-05-12T07:59:54.764Z,2.37
2019-05-12T08:04:58.005Z,2.67
2019-05-12T08:10:01.224Z,2.70
2019-05-12T08:15:09.308Z,1.80
2019-05-12T08:20:09.532Z,1.77
2019-05-12T08:25:13.696Z,2.10
2019-05-12T08:30:21.445Z,1.90
2019-05-12T08:35:29.022Z,2.37
2019-05-12T08:40:29.571Z,2.07
2019-05-12T08:45:36.764Z,1.80
2019-05-12T08:50:37.573Z,2.33
2019-05-12T08:55:43.568Z,1.60
2019-05-12T09:00:50.409Z,1.40
2019-05-12T09:05:53.666Z,1.67
2019-05-12T09:10:56.952Z,1.40
2019-05-12T09:16:00.141Z,1.60
2019-05-12T09:21:03.892Z,1.77
2019-05-12T09:26:07.412Z,1.50
2019-05-12T09:31:10.586Z,1.93
2019-05-12T09:36:19.936Z,1.43
2019-05-12T09:41:19.323Z,1.60
2019-05-12T09:46:23.283Z,1.20
2019-05-12T09:51:27.005Z,1.40
2019-05-12T09:56:30.660Z,2.07
2019-05-12T10:01:37.408Z,2.00
2019-05-12T10:06:39.091Z,1.10
2019-05-12T10:11:44.717Z,2.27
2019-05-12T10:16:49.690Z,1.47
2019-05-12T10:21:55.159Z,1.40
2019-05-12T10:26:57.601Z,1.73
2019-05-12T10:31:59.774Z,1.60
2019-05-12T10:37:04.174Z,1.80
2019-05-12T10:42:07.566Z,1.50
2019-05-12T10:47:10.567Z,2.07
2019-05-12T10:52:14.205Z,1.33
2019-05-12T10:57:17.704Z,1.67
2019-05-12T11:02:26.500Z,1.60
2019-05-12T11:07:27.985Z,2.00
2019-05-12T11:12:33.225Z,1.60
2019-05-12T11:17:54.475Z,1.40
2019-05-12T11:23:03.573Z,2.20
2019-05-12T11:28:14.012Z,1.80
2019-05-12T11:33:18.683Z,2.40
2019-05-12T11:38:28.183Z,1.43
2019-05-12T11:43:35.660Z,1.30
2019-05-12T11:49:14.013Z,1.50
2019-05-12T11:54:51.252Z,1.73
2019-05-12T12:00:02.251Z,1.40
2019-05-12T12:05:23.520Z,1.70
2019-05-12T12:10:35.508Z,1.70
2019-05-12T12:15:43.954Z,2.07
2019-05-12T12:20:47.353Z,1.30
2019-05-12T12:25:53.444Z,1.57
2019-05-12T12:31:00.830Z,1.83
2019-05-12T12:36:04.295Z,1.90
2019-05-12T12:41:09.431Z,1.43
2019-05-12T12:46:21.620Z,2.50
2019-05-12T12:51:25.259Z,1.90
2019-05-12T12:56:30.072Z,2.20
2019-05-12T13:01:35.753Z,1.60
2019-05-12T13:06:40.241Z,2.27
2019-05-12T13:11:44.427Z,1.87
2019-05-12T13:16:49.422Z,1.80
2019-05-12T13:21:53.193Z,2.57
2019-05-12T13:26:55.977Z,2.07
2019-05-12T13:31:59.537Z,2.10
2019-05-12T13:37:03.441Z,2.23
2019-05-12T13:42:10.213Z,1.80
2019-05-12T13:47:14.076Z,2.20
2019-05-12T13:52:20.287Z,2.03
2019-05-12T13:57:23.628Z,1.70
2019-05-12T14:02:26.971Z,2.20
2019-05-12T14:07:30.478Z,2.50
2019-05-12T14:12:33.600Z,1.73
2019-05-12T14:17:40.326Z,2.90
2019-05-12T14:22:44.553Z,2.10
2019-05-12T14:27:47.050Z,2.70
2019-05-12T14:32:55.197Z,1.90
2019-05-12T14:37:57.774Z,2.13
2019-05-12T14:43:03.757Z,1.90
2019-05-12T14:48:09.270Z,1.77
2019-05-12T14:53:16.719Z,2.13
2019-05-12T14:58:24.747Z,1.70
2019-05-12T15:03:34.853Z,1.80
2019-05-12T15:08:43.615Z,2.50
2019-05-12T15:13:56.391Z,2.03
2019-05-12T15:18:59.879Z,2.70
2019-05-12T15:24:03.970Z,2.47
2019-05-12T15:29:13.641Z,1.43
2019-05-12T15:34:15.103Z,1.87
2019-05-12T15:39:19.441Z,2.50
2019-05-12T15:44:31.166Z,2.17
2019-05-12T15:49:27.729Z,2.23
2019-05-12T15:54:31.144Z,2.00
2019-05-12T15:59:39.708Z,1.90
2019-05-12T16:04:45.333Z,2.03
2019-05-12T16:09:47.591Z,1.90
2019-05-12T16:14:50.966Z,1.90
2019-05-12T16:19:56.695Z,1.60
2019-05-12T16:25:04.118Z,2.13
2019-05-12T16:30:10.601Z,2.03
2019-05-12T16:35:20.359Z,1.33
2019-05-12T16:40:26.361Z,1.40
2019-05-12T16:45:30.280Z,2.70
2019-05-12T16:50:34.646Z,2.40
2019-05-12T16:55:44.898Z,2.60
2019-05-12T17:00:45.233Z,2.00
2019-05-12T17:05:50.053Z,2.10
2019-05-12T17:11:00.923Z,1.67
2019-05-12T17:16:00.265Z,1.60
2019-05-12T17:21:04.359Z,1.40
2019-05-12T17:26:08.013Z,1.97
2019-05-12T17:31:11.599Z,2.30
2019-05-12T17:36:17.892Z,2.30
2019-05-12T17:41:19.934Z,2.63
2019-05-12T17:46:23.387Z,1.63
2019-05-12T17:51:30.774Z,2.10
2019-05-12T17:56:37.261Z,1.70
2019-05-12T18:01:37.269Z,2.50
2019-05-12T18:06:40.620Z,2.00
2019-05-12T18:11:46.137Z,2.73
2019-05-12T18:16:53.598Z,2.30
2019-05-12T18:22:03.432Z,2.43
2019-05-12T18:27:07.223Z,2.10
2019-05-12T18:32:08.515Z,2.20
2019-05-12T18:37:13.632Z,2.40
2019-05-12T18:42:16.340Z,2.87
2019-05-12T18:47:31.563Z,2.50
2019-05-12T18:52:29.198Z,2.40
2019-05-12T18:57:39.133Z,2.10
2019-05-12T19:02:39.621Z,2.80
2019-05-12T19:07:43.892Z,2.00
2019-05-12T19:12:51.747Z,2.10
2019-05-12T19:17:54.445Z,2.43
2019-05-12T19:23:00.050Z,2.60
2019-05-12T19:28:08.682Z,2.07
2019-05-12T19:33:10.674Z,2.20
2019-05-12T19:38:17.072Z,2.40
2019-05-12T19:43:20.594Z,2.73
2019-05-12T19:48:27.498Z,2.40
2019-05-12T19:53:29.927Z,2.83
2019-05-12T19:58:34.076Z,2.57
2019-05-12T20:03:37.621Z,2.43
2019-05-12T20:08:43.554Z,2.80
2019-05-12T20:13:46.049Z,3.20
2019-05-12T20:18:49.390Z,2.90
2019-05-12T20:23:54.271Z,2.63
2019-05-12T20:28:57.054Z,2.43
2019-05-12T20:34:04.214Z,3.33
2019-05-12T20:39:09.832Z,2.10
2019-05-12T20:44:16.966Z,3.10
2019-05-12T20:49:20.200Z,2.23
2019-05-12T20:54:23.929Z,2.53
2019-05-12T20:59:28.397Z,2.90
2019-05-12T21:04:37.059Z,3.00
2019-05-12T21:09:36.838Z,2.20
2019-05-12T21:14:42.604Z,2.83
2019-05-12T21:19:55.596Z,3.10
2019-05-12T21:24:50.465Z,2.10
2019-05-12T21:29:54.166Z,2.70
2019-05-12T21:34:59.470Z,3.50
2019-05-12T21:40:03.582Z,2.75
2019-05-12T21:45:08.391Z,2.80
2019-05-12T21:50:13.843Z,2.43
2019-05-12T21:55:21.690Z,2.67
2019-05-12T22:00:27.973Z,2.83
2019-05-12T22:05:48.096Z,1.87
2019-05-12T22:10:36.339Z,2.63
2019-05-12T22:15:38.474Z,2.43
2019-05-12T22:20:46.120Z,2.00
2019-05-12T22:25:49.194Z,3.00
2019-05-12T22:30:53.968Z,3.70
2019-05-12T22:36:04.916Z,3.57
2019-05-12T22:41:01.561Z,2.90
2019-05-12T22:46:04.784Z,3.30
2019-05-12T22:51:17.476Z,3.37
2019-05-12T22:56:17.431Z,3.00
2019-05-12T23:01:16.802Z,2.97
2019-05-12T23:06:24.093Z,2.63
2019-05-12T23:11:31.844Z,2.60
2019-05-12T23:16:29.655Z,3.27
2019-05-12T23:21:32.973Z,3.30
2019-05-12T23:26:41.986Z,2.70
2019-05-12T23:31:40.920Z,2.60
2019-05-12T23:36:44.568Z,3.13
2019-05-12T23:41:47.920Z,2.70
2019-05-12T23:46:50.984Z,3.03
2019-05-12T23:51:54.314Z,3.83
2019-05-12T23:56:57.929Z,3.43
